Time;durP1;ratioP1;P1;durP2;ratioP2;P2;SDS_P1;SDS_P2;PMS_P1;PMS_P2;Temp;Humidity;BMP_temperature;BMP_pressure;BME280_temperature;BME280_humidity;BME280_pressure;Samples;Min_cycle;Max_cycle;Signal;HPM_P1;HPM_P2
2022/01/30 00:00:04;;;;;;;;;;;;;;;;;;5063417;28;1302;-76
2022/01/30 00:02:29;;;;;;;;;;;;;;;;;;5103960;28;1140;-76
2022/01/30 00:04:54;;;;;;;;;;;;;;;;;;5080630;28;1045;-77
2022/01/30 00:07:20;;;;;;;;;;;;;;;;;;5086224;28;1248;-77
2022/01/30 00:09:46;;;;;;;;;;;;;;;;;;5086712;28;1974;-78
2022/01/30 00:12:15;;;;;;;;;;;;;;;;;;5108411;28;1151;-76
2022/01/30 00:14:40;;;;;;;;;;;;;;;;;;5081923;28;1268;-76
2022/01/30 00:17:19;;;;;;;;;;;;;;;;;;5090079;28;1186;-77
2022/01/30 00:19:51;;;;;;;;;;;;;;;;;;5101336;28;1059;-77
2022/01/30 00:25:07;;;;;;;;;;;;;;;;;;5064135;28;1375;-77
2022/01/30 00:27:45;;;;;;;;;;;;;;;;;;5088041;28;1419;-75
2022/01/30 00:30:13;;;;;;;;;;;;;;;;;;5069491;28;1910;-77
2022/01/30 00:32:42;;;;;;;;;;;;;;;;;;5071571;28;1279;-77
2022/01/30 00:35:09;;;;;;;;;;;;;;;;;;5084584;28;1215;-77
2022/01/30 00:37:39;;;;;;;;;;;;;;;;;;5072347;28;1611;-78
2022/01/30 00:40:05;;;;;;;;;;;;;;;;;;5088439;28;1178;-77
2022/01/30 00:42:30;;;;;;;;;;;;;;;;;;5106537;28;1238;-77
2022/01/30 00:44:55;;;;;;;;;;;;;;;;;;5083108;28;1204;-78
2022/01/30 00:47:21;;;;;;;;;;;;;;;;;;5109636;28;1178;-78
2022/01/30 00:49:46;;;;;;;;;;;;;;;;;;5103337;28;1960;-77
2022/01/30 00:52:11;;;;;;;;;;;;;;;;;;5072164;28;1229;-77
2022/01/30 00:54:41;;;;;;;;;;;;;;;;;;5088218;28;1183;-77
2022/01/30 00:57:06;;;;;;;;;;;;;;;;;;5072037;28;1239;-77
2022/01/30 00:59:32;;;;;;;;;;;;;;;;;;5102074;28;1186;-77
2022/01/30 01:01:57;;;;;;;;;;;;;;;;;;5087962;28;1064;-77
2022/01/30 01:04:22;;;;;;;;;;;;;;;;;;5070551;28;1250;-78
2022/01/30 01:06:50;;;;;;;;;;;;;;;;;;5097503;28;1171;-77
2022/01/30 01:09:21;;;;;;;;;;;;;;;;;;5083753;28;1901;-76
2022/01/30 01:25:16;;;;;;;;;;;;;;;;;;5104675;28;1031;-76
2022/01/30 01:27:44;;;;;;;;;;;;;;;;;;5081933;28;1299;-76
2022/01/30 01:30:10;;;;;;;;;;;;;;;;;;5084288;28;1984;-77
2022/01/30 01:32:35;;;;;;;;;;;;;;;;;;5071549;28;1208;-77
2022/01/30 01:35:01;;;;;;;;;;;;;;;;;;5105637;28;1048;-77
2022/01/30 01:37:26;;;;;;;;;;;;;;;;;;5085147;28;1317;-76
2022/01/30 01:39:51;;;;;;;;;;;;;;;;;;5104682;28;1143;-76
2022/01/30 01:42:16;;;;;;;;;;;;;;;;;;5087209;28;1190;-76
2022/01/30 01:44:49;;;;;;;;;;;;;;;;;;5067457;28;1245;-77
2022/01/30 01:47:17;;;;;;;;;;;;;;;;;;5086537;28;1013;-76
2022/01/30 01:49:47;;;;;;;;;;;;;;;;;;5087433;28;1948;-76
2022/01/30 01:52:19;;;;;;;;;;;;;;;;;;5104153;28;1147;-76
2022/01/30 01:54:50;;;;;;;;;;;;;;;;;;5048343;28;1739;-77
2022/01/30 01:57:19;;;;;;;;;;;;;;;;;;5043579;28;1204;-77
2022/01/30 01:59:47;;;;;;;;;;;;;;;;;;5060986;28;1195;-77
2022/01/30 02:02:12;;;;;;;;;;;;;;;;;;5061331;28;1531;-76
2022/01/30 02:04:40;;;;;;;;;;;;;;;;;;5063791;28;1194;-76
2022/01/30 02:09:41;;;;;;;;;;;;;;;;;;5063959;28;2026;-76
2022/01/30 02:12:13;;;;;;;;;;;;;;;;;;5062022;28;1031;-76
2022/01/30 02:14:48;;;;;;;;;;;;;;;;;;5062552;28;1128;-76
2022/01/30 02:28:09;;;;;;;;;;;;;;;;;;5063071;28;1107;-75
2022/01/30 02:30:36;;;;;;;;;;;;;;;;;;5059265;28;1159;-76
2022/01/30 02:33:01;;;;;;;;;;;;;;;;;;5060992;28;1378;-76
2022/01/30 02:35:34;;;;;;;;;;;;;;;;;;5062580;28;1163;-77
2022/01/30 02:38:01;;;;;;;;;;;;;;;;;;5061521;28;1218;-76
2022/01/30 02:40:26;;;;;;;;;;;;;;;;;;5045692;28;1289;-76
2022/01/30 02:42:53;;;;;;;;;;;;;;;;;;5061168;28;1349;-77
2022/01/30 02:45:21;;;;;;;;;;;;;;;;;;5059851;28;1183;-77
2022/01/30 02:47:58;;;;;;;;;;;;;;;;;;5062924;28;1291;-76
2022/01/30 02:50:49;;;;;;;;;;;;;;;;;;5044141;28;1886;-76
2022/01/30 02:53:16;;;;;;;;;;;;;;;;;;5062569;28;1539;-77
2022/01/30 02:55:42;;;;;;;;;;;;;;;;;;5065715;28;1220;-76
2022/01/30 02:58:07;;;;;;;;;;;;;;;;;;5083202;28;1178;-76
2022/01/30 03:00:33;;;;;;;;;;;;;;;;;;5078685;28;1239;-77
2022/01/30 03:02:58;;;;;;;;;;;;;;;;;;5083940;28;1026;-77
2022/01/30 03:05:32;;;;;;;;;;;;;;;;;;5083719;28;1399;-77
2022/01/30 03:07:57;;;;;;;;;;;;;;;;;;5083451;28;1217;-77
2022/01/30 03:10:23;;;;;;;;;;;;;;;;;;5083051;28;1909;-78
2022/01/30 03:12:52;;;;;;;;;;;;;;;;;;5083526;28;1191;-77
2022/01/30 03:15:17;;;;;;;;;;;;;;;;;;5078652;28;1092;-77
2022/01/30 03:17:42;;;;;;;;;;;;;;;;;;5083246;28;1254;-77
2022/01/30 03:20:08;;;;;;;;;;;;;;;;;;5082426;28;1194;-77
2022/01/30 03:22:34;;;;;;;;;;;;;;;;;;5080841;28;1171;-76
2022/01/30 03:25:03;;;;;;;;;;;;;;;;;;5064636;28;1221;-77
2022/01/30 03:27:29;;;;;;;;;;;;;;;;;;5084261;28;1151;-77
2022/01/30 03:30:03;;;;;;;;;;;;;;;;;;5063614;28;1950;-77
2022/01/30 03:32:29;;;;;;;;;;;;;;;;;;5081919;28;1132;-77
2022/01/30 03:34:54;;;;;;;;;;;;;;;;;;5082644;28;1285;-76
2022/01/30 03:37:22;;;;;;;;;;;;;;;;;;5082475;28;1242;-77
2022/01/30 03:39:48;;;;;;;;;;;;;;;;;;5083776;28;1344;-77
2022/01/30 03:42:13;;;;;;;;;;;;;;;;;;5083885;28;1139;-76
2022/01/30 03:44:38;;;;;;;;;;;;;;;;;;5086381;28;1115;-76
2022/01/30 03:47:04;;;;;;;;;;;;;;;;;;5084206;28;1202;-76
2022/01/30 03:49:29;;;;;;;;;;;;;;;;;;5087320;28;1959;-76
2022/01/30 03:51:55;;;;;;;;;;;;;;;;;;5084362;28;1198;-76
2022/01/30 03:54:20;;;;;;;;;;;;;;;;;;5086374;28;1183;-77
2022/01/30 03:56:46;;;;;;;;;;;;;;;;;;5070843;28;1436;-77
2022/01/30 03:59:11;;;;;;;;;;;;;;;;;;5084791;28;1202;-76
2022/01/30 04:01:37;;;;;;;;;;;;;;;;;;5084675;28;1143;-77
2022/01/30 04:04:03;;;;;;;;;;;;;;;;;;5085187;28;1305;-77
2022/01/30 04:06:28;;;;;;;;;;;;;;;;;;5066211;28;1219;-77
2022/01/30 04:08:57;;;;;;;;;;;;;;;;;;5069084;28;1971;-77
2022/01/30 04:11:22;;;;;;;;;;;;;;;;;;5085135;28;1320;-77
2022/01/30 04:13:48;;;;;;;;;;;;;;;;;;5082722;28;1443;-76
2022/01/30 04:16:14;;;;;;;;;;;;;;;;;;5083708;28;1091;-76
2022/01/30 04:18:39;;;;;;;;;;;;;;;;;;5085937;28;1163;-76
2022/01/30 04:21:04;;;;;;;;;;;;;;;;;;5083096;28;1122;-76
2022/01/30 04:23:30;;;;;;;;;;;;;;;;;;5085521;28;1287;-76
2022/01/30 04:26:01;;;;;;;;;;;;;;;;;;5085712;28;1179;-77
2022/01/30 04:28:32;;;;;;;;;;;;;;;;;;5081196;28;1953;-77
2022/01/30 04:31:01;;;;;;;;;;;;;;;;;;5083912;28;1242;-77
2022/01/30 04:33:27;;;;;;;;;;;;;;;;;;5085090;28;1360;-76
2022/01/30 04:35:52;;;;;;;;;;;;;;;;;;5084619;28;1289;-76
2022/01/30 04:38:26;;;;;;;;;;;;;;;;;;5084347;28;1149;-76
2022/01/30 04:57:36;;;;;;;;;;;;;;;;;;5104070;28;978;-77
2022/01/30 05:07:47;;;;;;;;;;;;;;;;;;5104618;28;1178;-77
2022/01/30 05:10:12;;;;;;;;;;;;;;;;;;5087894;28;1921;-76
2022/01/30 05:12:48;;;;;;;;;;;;;;;;;;5106020;28;1194;-77
2022/01/30 05:15:14;;;;;;;;;;;;;;;;;;5103306;28;1039;-76
2022/01/30 05:17:40;;;;;;;;;;;;;;;;;;5089092;28;1347;-76
2022/01/30 05:20:05;;;;;;;;;;;;;;;;;;5085726;28;1131;-76
2022/01/30 05:22:31;;;;;;;;;;;;;;;;;;5105003;28;1167;-76
2022/01/30 05:24:56;;;;;;;;;;;;;;;;;;5089088;28;1293;-76
2022/01/30 05:27:21;;;;;;;;;;;;;;;;;;5086631;28;1265;-77
2022/01/30 05:29:47;;;;;;;;;;;;;;;;;;5105036;28;1889;-76
2022/01/30 05:32:12;;;;;;;;;;;;;;;;;;5086072;28;1115;-74
2022/01/30 05:34:38;;;;;;;;;;;;;;;;;;5107272;28;1139;-75
2022/01/30 05:37:08;;;;;;;;;;;;;;;;;;5101617;28;1190;-76
2022/01/30 05:39:33;;;;;;;;;;;;;;;;;;5104889;28;1128;-76
2022/01/30 05:41:59;;;;;;;;;;;;;;;;;;5088317;28;1160;-75
2022/01/30 05:44:38;;;;;;;;;;;;;;;;;;5083788;28;1338;-76
2022/01/30 05:47:09;;;;;;;;;;;;;;;;;;5087938;28;1028;-75
2022/01/30 05:49:36;;;;;;;;;;;;;;;;;;5106819;28;1901;-75
2022/01/30 05:52:04;;;;;;;;;;;;;;;;;;5085514;28;1276;-76
2022/01/30 05:54:30;;;;;;;;;;;;;;;;;;5066583;28;1224;-76
2022/01/30 05:56:55;;;;;;;;;;;;;;;;;;5084720;28;1187;-76
2022/01/30 05:59:20;;;;;;;;;;;;;;;;;;5064218;28;1262;-75
2022/01/30 06:01:46;;;;;;;;;;;;;;;;;;5085190;28;1171;-75
2022/01/30 06:04:11;;;;;;;;;;;;;;;;;;5081352;28;1262;-76
2022/01/30 06:06:36;;;;;;;;;;;;;;;;;;5080524;28;1131;-76
2022/01/30 06:11:42;;;;;;;;;;;;;;;;;;5083402;28;1094;-76
2022/01/30 06:14:08;;;;;;;;;;;;;;;;;;5080664;28;1075;-76
2022/01/30 06:16:33;;;;;;;;;;;;;;;;;;5082425;28;1294;-75
2022/01/30 06:18:58;;;;;;;;;;;;;;;;;;5065078;28;1156;-75
2022/01/30 06:21:23;;;;;;;;;;;;;;;;;;5060829;28;1231;-75
2022/01/30 06:23:49;;;;;;;;;;;;;;;;;;5065410;28;1254;-75
2022/01/30 06:26:14;;;;;;;;;;;;;;;;;;5079794;28;1186;-76
2022/01/30 06:28:39;;;;;;;;;;;;;;;;;;5080022;28;1959;-76
2022/01/30 06:31:08;;;;;;;;;;;;;;;;;;5081067;28;1425;-77
2022/01/30 06:33:34;;;;;;;;;;;;;;;;;;5064478;28;1147;-77
2022/01/30 06:35:59;;;;;;;;;;;;;;;;;;5081656;28;1151;-76
2022/01/30 06:38:24;;;;;;;;;;;;;;;;;;5063228;28;1325;-76
2022/01/30 06:40:49;;;;;;;;;;;;;;;;;;5084575;28;1237;-77
2022/01/30 06:43:15;;;;;;;;;;;;;;;;;;5081398;28;1286;-76
2022/01/30 06:45:42;;;;;;;;;;;;;;;;;;5077810;28;1294;-76
2022/01/30 06:48:11;;;;;;;;;;;;;;;;;;5082120;28;1222;-75
2022/01/30 06:50:36;;;;;;;;;;;;;;;;;;5077346;28;1878;-77
2022/01/30 06:53:01;;;;;;;;;;;;;;;;;;5083658;28;1179;-77
2022/01/30 06:55:27;;;;;;;;;;;;;;;;;;5097941;28;1374;-77
2022/01/30 06:57:52;;;;;;;;;;;;;;;;;;5085325;28;1211;-76
2022/01/30 07:00:17;;;;;;;;;;;;;;;;;;5082339;28;1316;-77
2022/01/30 07:02:42;;;;;;;;;;;;;;;;;;5087389;28;1242;-77
2022/01/30 07:05:11;;;;;;;;;;;;;;;;;;5085000;28;1349;-76
2022/01/30 07:07:37;;;;;;;;;;;;;;;;;;5066147;28;1251;-76
2022/01/30 07:10:23;;;;;;;;;;;;;;;;;;5085720;28;1973;-76
2022/01/30 07:12:49;;;;;;;;;;;;;;;;;;5088321;28;1193;-76
2022/01/30 07:15:17;;;;;;;;;;;;;;;;;;5079928;28;1240;-77
2022/01/30 07:17:43;;;;;;;;;;;;;;;;;;5089165;28;1334;-77
2022/01/30 07:20:11;;;;;;;;;;;;;;;;;;5089926;28;1341;-77
2022/01/30 07:22:37;;;;;;;;;;;;;;;;;;5085936;28;1371;-75
2022/01/30 07:25:05;;;;;;;;;;;;;;;;;;5109836;28;1226;-76
2022/01/30 07:27:30;;;;;;;;;;;;;;;;;;5107269;28;1055;-75
2022/01/30 07:29:55;;;;;;;;;;;;;;;;;;5089125;28;1909;-75
2022/01/30 07:32:21;;;;;;;;;;;;;;;;;;5104006;28;1182;-77
2022/01/30 07:34:49;;;;;;;;;;;;;;;;;;5076805;28;1521;-78
2022/01/30 07:37:18;;;;;;;;;;;;;;;;;;5086598;28;1200;-76
2022/01/30 07:39:44;;;;;;;;;;;;;;;;;;5090229;28;1456;-76
2022/01/30 07:42:09;;;;;;;;;;;;;;;;;;5090191;28;1197;-75
2022/01/30 07:44:35;;;;;;;;;;;;;;;;;;5086249;28;1191;-76
2022/01/30 07:47:00;;;;;;;;;;;;;;;;;;5087959;28;1175;-77
2022/01/30 07:49:25;;;;;;;;;;;;;;;;;;5086926;28;1953;-77
2022/01/30 07:51:51;;;;;;;;;;;;;;;;;;5086952;28;1219;-77
2022/01/30 07:54:19;;;;;;;;;;;;;;;;;;5065775;28;1331;-75
2022/01/30 07:56:44;;;;;;;;;;;;;;;;;;5084880;28;1207;-76
2022/01/30 07:59:09;;;;;;;;;;;;;;;;;;5083680;28;1127;-76
2022/01/30 08:01:35;;;;;;;;;;;;;;;;;;5082622;28;1067;-76
2022/01/30 08:04:00;;;;;;;;;;;;;;;;;;5083010;28;1167;-76
2022/01/30 08:06:26;;;;;;;;;;;;;;;;;;5082356;28;1088;-76
2022/01/30 08:08:51;;;;;;;;;;;;;;;;;;5085108;28;2013;-76
2022/01/30 08:11:20;;;;;;;;;;;;;;;;;;5083572;28;1159;-76
2022/01/30 08:13:45;;;;;;;;;;;;;;;;;;5080789;28;1410;-76
2022/01/30 08:16:11;;;;;;;;;;;;;;;;;;5083775;28;1189;-76
2022/01/30 08:18:38;;;;;;;;;;;;;;;;;;5066349;28;1290;-77
2022/01/30 08:21:04;;;;;;;;;;;;;;;;;;5081229;28;1203;-76
2022/01/30 08:23:32;;;;;;;;;;;;;;;;;;5065629;28;1183;-76
2022/01/30 08:25:58;;;;;;;;;;;;;;;;;;5050771;28;1417;-75
2022/01/30 08:28:23;;;;;;;;;;;;;;;;;;5082135;28;1882;-74
2022/01/30 08:30:48;;;;;;;;;;;;;;;;;;5082145;28;1176;-77
2022/01/30 08:33:15;;;;;;;;;;;;;;;;;;5084911;28;1140;-76
2022/01/30 08:35:40;;;;;;;;;;;;;;;;;;5082229;28;1095;-76
2022/01/30 08:38:06;;;;;;;;;;;;;;;;;;5078074;28;1095;-76
2022/01/30 08:40:31;;;;;;;;;;;;;;;;;;5084378;28;1324;-76
2022/01/30 08:42:56;;;;;;;;;;;;;;;;;;5083866;28;1194;-75
2022/01/30 08:45:25;;;;;;;;;;;;;;;;;;5082911;28;1275;-74
2022/01/30 08:47:52;;;;;;;;;;;;;;;;;;5087802;28;1123;-75
2022/01/30 08:50:27;;;;;;;;;;;;;;;;;;5085282;28;1996;-76
2022/01/30 08:52:53;;;;;;;;;;;;;;;;;;5084565;28;1194;-76
2022/01/30 08:55:29;;;;;;;;;;;;;;;;;;5102379;28;1178;-75
2022/01/30 08:57:55;;;;;;;;;;;;;;;;;;5059440;28;1365;-76
2022/01/30 09:00:21;;;;;;;;;;;;;;;;;;5087602;28;1163;-76
2022/01/30 09:02:46;;;;;;;;;;;;;;;;;;5085124;28;1132;-75
2022/01/30 09:05:12;;;;;;;;;;;;;;;;;;5072682;28;1195;-75
2022/01/30 09:07:38;;;;;;;;;;;;;;;;;;5083656;28;1310;-75
2022/01/30 09:10:04;;;;;;;;;;;;;;;;;;5108232;28;1993;-75
2022/01/30 09:12:29;;;;;;;;;;;;;;;;;;5087736;28;1226;-75
2022/01/30 09:14:55;;;;;;;;;;;;;;;;;;5107466;28;1253;-77
2022/01/30 09:17:24;;;;;;;;;;;;;;;;;;5068910;28;1379;-76
2022/01/30 09:19:49;;;;;;;;;;;;;;;;;;5089702;28;1344;-76
2022/01/30 09:22:16;;;;;;;;;;;;;;;;;;5104417;28;1151;-75
2022/01/30 09:24:42;;;;;;;;;;;;;;;;;;5106655;28;1181;-75
2022/01/30 09:27:07;;;;;;;;;;;;;;;;;;5072022;28;1322;-77
2022/01/30 09:29:33;;;;;;;;;;;;;;;;;;5051630;28;2033;-77
2022/01/30 09:31:59;;;;;;;;;;;;;;;;;;5101662;28;1233;-77
2022/01/30 09:34:27;;;;;;;;;;;;;;;;;;5086973;28;1282;-76
2022/01/30 09:36:52;;;;;;;;;;;;;;;;;;5105683;28;1206;-76
2022/01/30 09:39:18;;;;;;;;;;;;;;;;;;5104531;28;1146;-76
2022/01/30 09:41:44;;;;;;;;;;;;;;;;;;5104380;28;1116;-76
2022/01/30 09:44:09;;;;;;;;;;;;;;;;;;5106256;28;1166;-78
2022/01/30 09:46:40;;;;;;;;;;;;;;;;;;5101391;28;1131;-76
2022/01/30 09:49:09;;;;;;;;;;;;;;;;;;5086210;28;1914;-75
2022/01/30 09:51:39;;;;;;;;;;;;;;;;;;5067427;28;1204;-75
2022/01/30 09:54:04;;;;;;;;;;;;;;;;;;5084249;28;1267;-75
2022/01/30 09:56:30;;;;;;;;;;;;;;;;;;5086353;28;1467;-75
2022/01/30 09:58:55;;;;;;;;;;;;;;;;;;5085163;28;1501;-75
2022/01/30 10:01:30;;;;;;;;;;;;;;;;;;5084811;28;1116;-74
2022/01/30 10:03:55;;;;;;;;;;;;;;;;;;5101884;28;1190;-72
2022/01/30 10:06:23;;;;;;;;;;;;;;;;;;5087269;28;1219;-75
2022/01/30 10:08:52;;;;;;;;;;;;;;;;;;5065262;28;2427;-76
2022/01/30 10:11:30;;;;;;;;;;;;;;;;;;5104403;28;1133;-76
2022/01/30 10:14:06;;;;;;;;;;;;;;;;;;5069091;28;1427;-75
2022/01/30 10:16:40;;;;;;;;;;;;;;;;;;5081223;28;1261;-77
2022/01/30 10:19:10;;;;;;;;;;;;;;;;;;5082685;28;1357;-76
2022/01/30 10:21:35;;;;;;;;;;;;;;;;;;5100939;28;1132;-77
2022/01/30 10:24:16;;;;;;;;;;;;;;;;;;5102900;28;1096;-77
2022/01/30 10:26:41;;;;;;;;;;;;;;;;;;5103707;28;1114;-76
2022/01/30 10:29:20;;;;;;;;;;;;;;;;;;5087142;28;1925;-77
2022/01/30 10:32:05;;;;;;;;;;;;;;;;;;5080461;28;1361;-76
2022/01/30 10:34:34;;;;;;;;;;;;;;;;;;5104723;28;1178;-77
2022/01/30 10:37:19;;;;;;;;;;;;;;;;;;5085271;28;1361;-77
2022/01/30 10:39:55;;;;;;;;;;;;;;;;;;5085181;28;1434;-76
2022/01/30 10:42:39;;;;;;;;;;;;;;;;;;5104607;28;1143;-76
2022/01/30 10:45:23;;;;;;;;;;;;;;;;;;5103021;28;1123;-77
2022/01/30 10:47:48;;;;;;;;;;;;;;;;;;5098550;28;1200;-77
2022/01/30 10:50:15;;;;;;;;;;;;;;;;;;5105941;28;1937;-76
2022/01/30 10:53:10;;;;;;;;;;;;;;;;;;5081795;28;1526;-75
2022/01/30 10:55:35;;;;;;;;;;;;;;;;;;5089659;28;1230;-75
2022/01/30 10:58:01;;;;;;;;;;;;;;;;;;5104743;28;1178;-76
2022/01/30 11:00:37;;;;;;;;;;;;;;;;;;5103460;28;1047;-76
2022/01/30 11:03:02;;;;;;;;;;;;;;;;;;5084485;28;1352;-76
2022/01/30 11:05:27;;;;;;;;;;;;;;;;;;5085312;28;1143;-76
2022/01/30 11:07:53;;;;;;;;;;;;;;;;;;5099912;28;1195;-76
2022/01/30 11:10:24;;;;;;;;;;;;;;;;;;5104501;28;1945;-75
2022/01/30 11:13:07;;;;;;;;;;;;;;;;;;5068398;28;1219;-76
2022/01/30 11:15:37;;;;;;;;;;;;;;;;;;5099001;28;1112;-76
2022/01/30 11:18:04;;;;;;;;;;;;;;;;;;5099849;28;1116;-76
2022/01/30 11:20:33;;;;;;;;;;;;;;;;;;5103493;28;1171;-76
2022/01/30 11:23:00;;;;;;;;;;;;;;;;;;5083500;28;1331;-74
2022/01/30 11:25:27;;;;;;;;;;;;;;;;;;5103431;28;1147;-79
2022/01/30 11:27:54;;;;;;;;;;;;;;;;;;5102298;28;1151;-77
2022/01/30 11:30:20;;;;;;;;;;;;;;;;;;5083822;28;1914;-77
2022/01/30 11:32:46;;;;;;;;;;;;;;;;;;5088276;28;1230;-76
2022/01/30 11:35:11;;;;;;;;;;;;;;;;;;5102956;28;1139;-78
2022/01/30 11:37:41;;;;;;;;;;;;;;;;;;5083261;28;1178;-77
2022/01/30 11:40:13;;;;;;;;;;;;;;;;;;5086372;28;1277;-79
2022/01/30 11:42:40;;;;;;;;;;;;;;;;;;5102509;28;1282;-77
2022/01/30 11:45:08;;;;;;;;;;;;;;;;;;5083718;28;1308;-79
2022/01/30 11:47:44;;;;;;;;;;;;;;;;;;5101962;28;1135;-79
2022/01/30 11:50:09;;;;;;;;;;;;;;;;;;5081765;28;1952;-78
2022/01/30 11:52:55;;;;;;;;;;;;;;;;;;5082298;28;1203;-80
2022/01/30 11:55:39;;;;;;;;;;;;;;;;;;5086739;28;1379;-80
2022/01/30 11:58:05;;;;;;;;;;;;;;;;;;5084325;28;1187;-78
2022/01/30 12:00:49;;;;;;;;;;;;;;;;;;5102100;28;1201;-80
2022/01/30 12:03:32;;;;;;;;;;;;;;;;;;5086663;28;1167;-80
2022/01/30 12:06:17;;;;;;;;;;;;;;;;;;5107696;28;1194;-79
2022/01/30 12:08:45;;;;;;;;;;;;;;;;;;5083557;28;1973;-79
2022/01/30 12:11:30;;;;;;;;;;;;;;;;;;5108093;28;1139;-79
2022/01/30 12:13:55;;;;;;;;;;;;;;;;;;5104634;28;1099;-77
2022/01/30 12:16:43;;;;;;;;;;;;;;;;;;5086989;28;1218;-76
2022/01/30 12:19:08;;;;;;;;;;;;;;;;;;5089030;28;1275;-80
2022/01/30 12:21:43;;;;;;;;;;;;;;;;;;5072597;28;1287;-76
2022/01/30 12:24:22;;;;;;;;;;;;;;;;;;5104877;28;1206;-78
2022/01/30 12:26:54;;;;;;;;;;;;;;;;;;5085870;28;1326;-79
2022/01/30 12:29:40;;;;;;;;;;;;;;;;;;5089162;28;1902;-80
2022/01/30 12:32:23;;;;;;;;;;;;;;;;;;5085817;28;1209;-79
2022/01/30 12:34:55;;;;;;;;;;;;;;;;;;5087254;28;1178;-81
2022/01/30 12:37:22;;;;;;;;;;;;;;;;;;5085273;28;1618;-80
2022/01/30 12:39:47;;;;;;;;;;;;;;;;;;5087671;28;1293;-80
2022/01/30 12:42:17;;;;;;;;;;;;;;;;;;5088188;28;1247;-80
2022/01/30 12:44:46;;;;;;;;;;;;;;;;;;5087812;28;1096;-80
2022/01/30 12:47:12;;;;;;;;;;;;;;;;;;5069035;28;1185;-78
2022/01/30 12:49:47;;;;;;;;;;;;;;;;;;5107030;28;1952;-81
2022/01/30 12:52:21;;;;;;;;;;;;;;;;;;5053371;28;1428;-79
2022/01/30 12:54:49;;;;;;;;;;;;;;;;;;5053356;28;1444;-79
2022/01/30 12:57:15;;;;;;;;;;;;;;;;;;5107143;28;1159;-80
2022/01/30 12:59:49;;;;;;;;;;;;;;;;;;5088930;28;1185;-80
2022/01/30 13:02:15;;;;;;;;;;;;;;;;;;5104266;28;1162;-80
2022/01/30 13:05:00;;;;;;;;;;;;;;;;;;5088244;28;1218;-80
2022/01/30 13:07:25;;;;;;;;;;;;;;;;;;5086995;28;1357;-79
2022/01/30 13:10:12;;;;;;;;;;;;;;;;;;5104114;28;1902;-79
2022/01/30 13:12:38;;;;;;;;;;;;;;;;;;5085038;28;1281;-79
2022/01/30 13:15:10;;;;;;;;;;;;;;;;;;5081347;28;1148;-79
2022/01/30 13:17:40;;;;;;;;;;;;;;;;;;5103956;28;1190;-80
2022/01/30 13:20:07;;;;;;;;;;;;;;;;;;5068529;28;1195;-80
2022/01/30 13:22:38;;;;;;;;;;;;;;;;;;5102332;28;1116;-78
2022/01/30 13:25:05;;;;;;;;;;;;;;;;;;5085728;28;1214;-78
2022/01/30 13:27:30;;;;;;;;;;;;;;;;;;5105960;28;1238;-80
2022/01/30 13:30:01;;;;;;;;;;;;;;;;;;5101948;28;1890;-80
2022/01/30 13:32:26;;;;;;;;;;;;;;;;;;5083783;28;1238;-80
2022/01/30 13:34:57;;;;;;;;;;;;;;;;;;5103940;28;1143;-80
2022/01/30 13:37:22;;;;;;;;;;;;;;;;;;5084035;28;1260;-80
2022/01/30 13:47:51;;;;;;;;;;;;;;;;;;5100448;28;1218;-79
2022/01/30 13:50:18;;;;;;;;;;;;;;;;;;5087148;28;1939;-79
2022/01/30 13:52:43;;;;;;;;;;;;;;;;;;5085433;28;1218;-79
2022/01/30 13:55:09;;;;;;;;;;;;;;;;;;5083558;28;1322;-80
2022/01/30 13:57:37;;;;;;;;;;;;;;;;;;5088514;28;1144;-79
2022/01/30 14:00:07;;;;;;;;;;;;;;;;;;5084873;28;1639;-79
2022/01/30 14:02:32;;;;;;;;;;;;;;;;;;5085509;28;1253;-79
2022/01/30 14:05:17;;;;;;;;;;;;;;;;;;5084754;28;1428;-79
2022/01/30 14:07:43;;;;;;;;;;;;;;;;;;5103171;28;1212;-80
2022/01/30 14:10:08;;;;;;;;;;;;;;;;;;5086342;28;1894;-79
2022/01/30 14:12:39;;;;;;;;;;;;;;;;;;5105159;28;1178;-80
2022/01/30 14:15:09;;;;;;;;;;;;;;;;;;5102980;28;1285;-80
2022/01/30 14:17:41;;;;;;;;;;;;;;;;;;5086297;28;1210;-80
2022/01/30 14:20:08;;;;;;;;;;;;;;;;;;5085279;28;1260;-80
2022/01/30 14:22:35;;;;;;;;;;;;;;;;;;5103859;28;1214;-79
2022/01/30 14:25:05;;;;;;;;;;;;;;;;;;5086369;28;1250;-80
2022/01/30 14:27:38;;;;;;;;;;;;;;;;;;5085929;28;1435;-79
2022/01/30 14:30:05;;;;;;;;;;;;;;;;;;5102645;28;2020;-80
2022/01/30 14:32:34;;;;;;;;;;;;;;;;;;5102461;28;1163;-80
2022/01/30 14:35:00;;;;;;;;;;;;;;;;;;5085956;28;1262;-80
2022/01/30 14:37:26;;;;;;;;;;;;;;;;;;5084087;28;1230;-79
2022/01/30 14:39:58;;;;;;;;;;;;;;;;;;5105260;28;1139;-81
2022/01/30 14:42:24;;;;;;;;;;;;;;;;;;5085397;28;1316;-80
2022/01/30 14:44:59;;;;;;;;;;;;;;;;;;5106222;28;1183;-80
2022/01/30 14:47:25;;;;;;;;;;;;;;;;;;5085627;28;1273;-80
2022/01/30 14:49:56;;;;;;;;;;;;;;;;;;5069593;28;1941;-79
2022/01/30 14:52:22;;;;;;;;;;;;;;;;;;5101604;28;1098;-79
2022/01/30 14:54:48;;;;;;;;;;;;;;;;;;5104366;28;1111;-80
2022/01/30 14:57:13;;;;;;;;;;;;;;;;;;5087735;28;1175;-79
2022/01/30 14:59:38;;;;;;;;;;;;;;;;;;5072989;28;1112;-80
2022/01/30 15:02:04;;;;;;;;;;;;;;;;;;5100883;28;1096;-80
2022/01/30 15:04:29;;;;;;;;;;;;;;;;;;5105249;28;1183;-80
2022/01/30 15:06:55;;;;;;;;;;;;;;;;;;5085841;28;1155;-80
2022/01/30 15:09:21;;;;;;;;;;;;;;;;;;5067813;28;1902;-79
2022/01/30 15:11:46;;;;;;;;;;;;;;;;;;5087313;28;1289;-80
2022/01/30 15:14:12;;;;;;;;;;;;;;;;;;5084675;28;1369;-79
2022/01/30 15:16:49;;;;;;;;;;;;;;;;;;5084373;28;1308;-80
2022/01/30 15:19:15;;;;;;;;;;;;;;;;;;5084822;28;1139;-79
2022/01/30 15:21:40;;;;;;;;;;;;;;;;;;5069582;28;1235;-79
2022/01/30 15:24:06;;;;;;;;;;;;;;;;;;5082418;28;1299;-80
2022/01/30 15:26:35;;;;;;;;;;;;;;;;;;5103937;28;1214;-80
2022/01/30 15:29:01;;;;;;;;;;;;;;;;;;5085038;28;1910;-79
2022/01/30 15:31:26;;;;;;;;;;;;;;;;;;5106162;28;1171;-79
2022/01/30 15:33:53;;;;;;;;;;;;;;;;;;5084178;28;1123;-80
2022/01/30 15:36:19;;;;;;;;;;;;;;;;;;5069153;28;1307;-79
2022/01/30 15:38:44;;;;;;;;;;;;;;;;;;5088175;28;1069;-79
2022/01/30 15:41:09;;;;;;;;;;;;;;;;;;5089598;28;1087;-79
2022/01/30 15:43:37;;;;;;;;;;;;;;;;;;5108634;28;1171;-81
2022/01/30 15:49:04;;;;;;;;;;;;;;;;;;5089046;28;1885;-79
2022/01/30 15:51:30;;;;;;;;;;;;;;;;;;5090172;28;1303;-79
2022/01/30 15:54:01;;;;;;;;;;;;;;;;;;5088763;28;1233;-79
2022/01/30 15:56:27;;;;;;;;;;;;;;;;;;5090822;28;1266;-79
2022/01/30 15:58:53;;;;;;;;;;;;;;;;;;5108924;28;1163;-80
2022/01/30 16:01:18;;;;;;;;;;;;;;;;;;5088826;28;1239;-79
2022/01/30 16:03:43;;;;;;;;;;;;;;;;;;5088173;28;1166;-80
2022/01/30 16:06:09;;;;;;;;;;;;;;;;;;5088865;28;1151;-79
2022/01/30 16:08:40;;;;;;;;;;;;;;;;;;5107486;28;1179;-80
2022/01/30 16:16:43;;;;;;;;;;;;;;;;;;5091802;28;1016;-79
2022/01/30 16:19:09;;;;;;;;;;;;;;;;;;5106817;28;1038;-79
2022/01/30 16:21:35;;;;;;;;;;;;;;;;;;5088596;28;1239;-79
2022/01/30 16:24:03;;;;;;;;;;;;;;;;;;5105722;28;1167;-79
2022/01/30 16:26:29;;;;;;;;;;;;;;;;;;5088923;28;1345;-80
2022/01/30 16:28:54;;;;;;;;;;;;;;;;;;5088321;28;1961;-80
2022/01/30 16:31:20;;;;;;;;;;;;;;;;;;5086955;28;1285;-80
2022/01/30 16:33:46;;;;;;;;;;;;;;;;;;5086464;28;1193;-79
2022/01/30 16:36:11;;;;;;;;;;;;;;;;;;5070537;28;1218;-79
2022/01/30 16:38:36;;;;;;;;;;;;;;;;;;5071146;28;1340;-79
2022/01/30 16:41:03;;;;;;;;;;;;;;;;;;5104858;28;1131;-79
2022/01/30 16:43:40;;;;;;;;;;;;;;;;;;5070220;28;1183;-80
2022/01/30 16:46:21;;;;;;;;;;;;;;;;;;5069950;28;1377;-79
2022/01/30 16:48:46;;;;;;;;;;;;;;;;;;5100267;28;1893;-81
2022/01/30 16:51:12;;;;;;;;;;;;;;;;;;5067987;28;1324;-79
2022/01/30 16:53:37;;;;;;;;;;;;;;;;;;5087608;28;1159;-80
2022/01/30 16:56:04;;;;;;;;;;;;;;;;;;5105648;28;1420;-79
2022/01/30 16:58:29;;;;;;;;;;;;;;;;;;5070454;28;1202;-80
2022/01/30 17:00:54;;;;;;;;;;;;;;;;;;5105466;28;1226;-80
2022/01/30 17:03:20;;;;;;;;;;;;;;;;;;5101043;28;1094;-80
2022/01/30 17:05:46;;;;;;;;;;;;;;;;;;5071961;28;1600;-80
2022/01/30 17:08:17;;;;;;;;;;;;;;;;;;5084343;28;1191;-80
2022/01/30 17:10:43;;;;;;;;;;;;;;;;;;5088610;28;1967;-80
2022/01/30 17:13:08;;;;;;;;;;;;;;;;;;5104844;28;1150;-79
2022/01/30 17:15:35;;;;;;;;;;;;;;;;;;5070198;28;1266;-79
2022/01/30 17:18:02;;;;;;;;;;;;;;;;;;5085271;28;1310;-80
2022/01/30 17:20:28;;;;;;;;;;;;;;;;;;5087587;28;1392;-80
2022/01/30 17:22:54;;;;;;;;;;;;;;;;;;5104729;28;1203;-79
2022/01/30 17:25:19;;;;;;;;;;;;;;;;;;5069692;28;1538;-78
2022/01/30 17:27:45;;;;;;;;;;;;;;;;;;5070222;28;1224;-80
2022/01/30 17:30:10;;;;;;;;;;;;;;;;;;5102478;28;1966;-79
2022/01/30 17:32:35;;;;;;;;;;;;;;;;;;5068957;28;1200;-80
2022/01/30 17:35:08;;;;;;;;;;;;;;;;;;5107032;28;1171;-79
2022/01/30 17:37:33;;;;;;;;;;;;;;;;;;5071124;28;1148;-80
2022/01/30 17:40:00;;;;;;;;;;;;;;;;;;5069767;28;1243;-80
2022/01/30 17:42:26;;;;;;;;;;;;;;;;;;5088393;28;1112;-80
2022/01/30 17:44:54;;;;;;;;;;;;;;;;;;5108051;28;1149;-80
2022/01/30 17:47:20;;;;;;;;;;;;;;;;;;5084318;28;1232;-79
2022/01/30 17:49:45;;;;;;;;;;;;;;;;;;5088875;28;1893;-80
2022/01/30 17:52:11;;;;;;;;;;;;;;;;;;5104561;28;1210;-80
2022/01/30 17:54:36;;;;;;;;;;;;;;;;;;5108293;28;1151;-80
2022/01/30 17:57:04;;;;;;;;;;;;;;;;;;5082573;28;1164;-80
2022/01/30 17:59:29;;;;;;;;;;;;;;;;;;5085060;28;1166;-80
2022/01/30 18:01:58;;;;;;;;;;;;;;;;;;5082733;28;1281;-80
2022/01/30 18:04:24;;;;;;;;;;;;;;;;;;5066802;28;1481;-79
2022/01/30 18:06:55;;;;;;;;;;;;;;;;;;5086533;28;1246;-80
2022/01/30 18:09:23;;;;;;;;;;;;;;;;;;5080262;28;1959;-80
2022/01/30 18:11:49;;;;;;;;;;;;;;;;;;5086204;28;1186;-80
2022/01/30 18:14:15;;;;;;;;;;;;;;;;;;5083230;28;1218;-80
2022/01/30 18:16:43;;;;;;;;;;;;;;;;;;5082174;28;1138;-81
2022/01/30 18:19:15;;;;;;;;;;;;;;;;;;5083625;28;1127;-80
2022/01/30 18:21:40;;;;;;;;;;;;;;;;;;5082825;28;1218;-81